Condor Rapide — C6YK8 — position and weather

sailwx.info

Track history (hours):
 
Tides and Currents Weather Stations Pressure Air Temp Water Temp Dewpoint Dewpoint Depression Visibility Wind Speed Wind Dir Waves Ship Positions

Condor Rapide

Last reported at 2018-May-22 13:43 UTC. Time now 2018-May-22 17:59 UTC.
Position N 49°27' W 002°32'.

Length 86 m; draft 3.7 m.

Type: High speed craft. MMSI: 311036800.

Date/timePositionNaut miles runAvg speedWind from/ knotsBaromVisibWave heightAir tempDewpointWater temp
2018-May-22 13:43N 49°27' W 002°32'0 0.0
2018-May-22 13:19N 49°27' W 002°32'0 0.0
2018-May-22 12:56N 49°27' W 002°32'0 0.0
2018-May-22 10:49N 49°27' W 002°32'0 0.0
2018-May-22 10:20N 49°27' W 002°32'0 0.0
2018-May-22 09:55N 49°27' W 002°32'0 0.6
2018-May-22 09:30N 49°27' W 002°31'3012.9
2018-May-22 07:12N 49°05' W 002°01'828.6
2018-May-22 06:55N 48°57' W 001°57'1911.5
2018-May-22 05:15N 48°38' W 002°02'0 0.0
2018-May-22 04:51N 48°38' W 002°02'0 0.0
2018-May-22 04:30N 48°38' W 002°02'0 0.0
2018-May-20 21:17N 48°39' W 002°02'0 0.0
2018-May-20 20:53N 48°39' W 002°02'0 0.1
2018-May-20 20:17N 48°38' W 002°02'0 0.5
2018-May-20 20:00N 48°38' W 002°02'2827.1
2018-May-20 18:57N 49°07' W 002°04'2 1.7
2018-May-20 17:50N 49°06' W 002°02'1125.6
2018-May-20 17:24N 48°55' W 001°58'1325.4
2018-May-20 16:54N 48°43' W 002°05'5 0.4
2018-May-20 04:53N 48°39' W 002°02'0 0.0
2018-May-20 04:11N 48°39' W 002°02'0 0.0
2018-May-20 03:53N 48°39' W 002°02'0 0.0
2018-May-20 03:29N 48°39' W 002°02'0 0.0
2018-May-20 00:29N 48°39' W 002°02'0 0.0
2018-May-19 22:59N 48°39' W 002°02'0 0.1
2018-May-19 19:59N 48°38' W 002°02'919.3
2018-May-19 19:30N 48°48' W 002°01'1734.1
2018-May-19 19:01N 49°05' W 002°04'6 5.6
2018-May-19 17:54N 49°11' W 002°07'1021.0
2018-May-19 17:25N 49°03' W 001°58'2231.2
2018-May-19 16:42N 48°41' W 002°05'4 1.4
2018-May-19 14:08N 48°38' W 002°02'1 2.7
2018-May-19 13:56N 48°39' W 002°03'32 4.6
2018-May-19 06:58N 49°11' W 002°07'3215.5
2018-May-19 04:52N 48°38' W 002°02'0 0.0
2018-May-19 02:22N 48°38' W 002°02'0 0.0
2018-May-19 01:52N 48°38' W 002°02'0 0.0
2018-May-19 01:28N 48°38' W 002°02'0 0.0
2018-May-19 00:58N 48°38' W 002°02'0 0.0
2018-May-19 00:22N 48°38' W 002°02'0 0.0
2018-May-18 23:40N 48°38' W 002°02'0 0.0
2018-May-18 23:16N 48°38' W 002°02'0 0.0
2018-May-18 22:58N 48°38' W 002°02'0 0.0
2018-May-18 22:28N 48°38' W 002°02'0 0.0
2018-May-18 21:46N 48°38' W 002°02'0 0.0
2018-May-18 21:19N 48°38' W 002°02'0 0.0
2018-May-18 20:58N 48°38' W 002°02'2 4.0
2018-May-18 20:25N 48°40' W 002°04'1531.8
2018-May-18 19:56N 48°55' W 002°02'1533.6
2018-May-18 19:30N 49°09' W 002°07'1 1.5
2018-May-18 18:36N 49°11' W 002°07'1 8.3
2018-May-18 18:27N 49°09' W 002°07'1330.4
2018-May-18 18:00N 48°57' W 001°60'1633.3
2018-May-18 17:30N 48°41' W 002°05'3 6.5
2018-May-18 16:58N 48°38' W 002°02'0 0.0
2018-May-18 16:22N 48°38' W 002°02'0 0.4
2018-May-18 16:00N 48°38' W 002°02'1625.0
2018-May-18 15:22N 48°51' W 002°16'1333.7
2018-May-18 14:58N 49°04' W 002°22'1634.0
2018-May-18 14:29N 49°20' W 002°28'815.9
2018-May-18 14:00N 49°27' W 002°32'0 0.0
2018-May-18 13:30N 49°27' W 002°32'0 0.1
2018-May-18 13:01N 49°27' W 002°32'3028.5
2018-May-18 11:58N 48°58' W 002°29'1834.1
2018-May-18 11:25N 48°44' W 002°10'8 9.2
2018-May-18 10:34N 48°38' W 002°02'0 0.0
2018-May-18 10:22N 48°38' W 002°02'0 0.1
2018-May-18 09:19N 48°38' W 002°02'411.6
2018-May-18 09:00N 48°41' W 002°05'1632.9
2018-May-18 08:31N 48°57' W 002°01'1415.7
2018-May-18 07:37N 49°11' W 002°07'1 1.5
2018-May-18 06:55N 49°10' W 002°07'1332.9
2018-May-18 06:31N 48°57' W 002°01'1631.8
2018-May-18 06:00N 48°41' W 002°02'2 4.6
2018-May-18 05:29N 48°38' W 002°02'0 0.0
2018-May-18 04:59N 48°38' W 002°02'0 0.0
2018-May-18 04:29N 48°38' W 002°02'0 0.0
2018-May-18 03:59N 48°38' W 002°02'0 0.0
2018-May-18 03:30N 48°38' W 002°02'0 0.0
2018-May-18 03:00N 48°38' W 002°02'0 0.0
2018-May-18 01:59N 48°38' W 002°02'0 0.0
2018-May-18 01:29N 48°38' W 002°02'0 0.0
2018-May-18 00:11N 48°38' W 002°02'0 0.0
2018-May-17 22:35N 48°38' W 002°02'0 0.0
2018-May-17 22:22N 48°38' W 002°02'0 0.0
2018-May-17 21:59N 48°38' W 002°02'0 0.0
2018-May-17 21:30N 48°38' W 002°02'32 7.4
2018-May-17 17:07N 49°11' W 002°07'213.2
2018-May-17 16:57N 49°09' W 002°06'2025.2
2018-May-17 16:10N 48°49' W 002°01'830.9
2018-May-17 15:55N 48°41' W 002°05'4 7.6
2018-May-17 15:25N 48°38' W 002°02'0 0.0
2018-May-17 14:57N 48°38' W 002°02'0 0.0
2018-May-17 14:25N 48°38' W 002°02'0 0.0
2018-May-17 13:55N 48°38' W 002°02'0 0.0
2018-May-17 12:37N 48°38' W 002°02'0 0.0
2018-May-17 12:13N 48°38' W 002°02'0 0.0
2018-May-17 09:43N 48°38' W 002°02'0 0.2
2018-May-17 09:16N 48°38' W 002°02'1621.8
2018-May-17 08:32N 48°54' W 002°01'433.9
2018-May-17 08:25N 48°58' W 002°00'1330.8
2018-May-17 08:00N 49°10' W 002°07'0 0.3
2018-May-17 07:03N 49°10' W 002°07'1 9.3
2018-May-17 06:58N 49°10' W 002°07'1429.7
2018-May-17 06:31N 48°57' W 002°01'1630.2
2018-May-17 05:59N 48°41' W 002°02'29 1.3
2018-May-16 07:53N 49°10' W 002°07'2915.7
2018-May-16 06:03N 48°41' W 002°02'3 0.4
2018-May-15 23:43N 48°38' W 002°02'0 0.0
2018-May-15 18:49N 48°38' W 002°02'0 0.3
2018-May-15 18:26N 48°38' W 002°02'2125.4
2018-May-15 17:37N 48°59' W 002°01'1133.1
2018-May-15 17:16N 49°10' W 002°07'1 0.9
2018-May-15 16:10N 49°11' W 002°07'1324.9
2018-May-15 15:39N 49°18' W 002°23'534.2
2018-May-15 15:30N 49°23' W 002°26'612.1
2018-May-15 15:01N 49°27' W 002°32'0 0.0
2018-May-15 14:29N 49°27' W 002°32'0 0.0
2018-May-15 14:00N 49°27' W 002°32'0 0.0
2018-May-15 13:30N 49°27' W 002°32'0 0.0
2018-May-15 13:01N 49°27' W 002°32'0 0.0
2018-May-15 12:30N 49°27' W 002°32'0 0.0
2018-May-15 12:00N 49°27' W 002°32'0 0.0
2018-May-15 11:30N 49°27' W 002°32'0 0.0
2018-May-15 11:00N 49°27' W 002°32'0 0.0
2018-May-15 10:30N 49°27' W 002°32'0 0.0
2018-May-15 10:00N 49°27' W 002°32'510.5
2018-May-15 09:31N 49°23' W 002°27'1525.7
2018-May-15 08:57N 49°10' W 002°16'610.6
2018-May-15 08:22N 49°11' W 002°07'0 0.0
2018-May-15 07:58N 49°11' W 002°07'2 4.8
2018-May-15 07:29N 49°08' W 002°06'1223.6
2018-May-15 06:58N 48°57' W 002°01'1225.3
2018-May-15 06:30N 48°45' W 002°02'6 6.6
2018-May-15 05:33N 48°38' W 002°02'0 0.0
2018-May-15 05:15N 48°38' W 002°02'0 0.0
2018-May-15 04:57N 48°38' W 002°02'0 0.0
2018-May-15 04:03N 48°38' W 002°02'0 0.0
2018-May-14 21:33N 48°38' W 002°02'0 0.0
2018-May-14 20:33N 48°38' W 002°02'0 0.1
2018-May-14 19:21N 48°38' W 002°02'1419.8
2018-May-14 18:39N 48°52' W 002°01'624.7
2018-May-14 18:26N 48°58' W 002°01'1224.0
2018-May-14 17:57N 49°09' W 002°07'2 2.0
2018-May-14 17:04N 49°11' W 002°07'0 0.2
2018-May-14 16:48N 49°11' W 002°07'919.1
2018-May-14 16:20N 49°02' W 002°02'822.4
2018-May-14 15:58N 48°54' W 002°01'1224.9
2018-May-14 15:30N 48°43' W 002°02'4 7.4
2018-May-14 14:56N 48°38' W 002°02'0 0.0
2018-May-14 14:26N 48°38' W 002°02'0 0.0
2018-May-14 13:59N 48°38' W 002°02'19 3.9
2018-May-14 09:04N 48°57' W 001°58'1220.7
2018-May-14 08:30N 49°08' W 002°06'3 3.3
2018-May-14 07:34N 49°11' W 002°07'2522.0
2018-May-14 06:26N 48°46' W 002°02'716.9
2018-May-14 06:00N 48°39' W 002°02'29 0.8
2018-May-12 18:25N 49°07' W 002°05'6 3.0
2018-May-12 16:18N 49°02' W 002°02'1024.4
2018-May-12 15:54N 48°52' W 002°01'1024.9
2018-May-12 15:30N 48°42' W 002°02'  
Track history (hours):
 
Tides and Currents Weather Stations Pressure Air Temp Water Temp Dewpoint Dewpoint Depression Visibility Wind Speed Wind Dir Waves Ship Positions

Condor Rapide

Last reported at 2018-May-22 13:43 UTC. Time now 2018-May-22 17:59 UTC.
Position N 49°27' W 002°32'.

Length 86 m; draft 3.7 m.

Type: High speed craft. MMSI: 311036800.

Date/timePositionNaut miles runAvg speedWind from/ knotsBaromVisibWave heightAir tempDewpointWater temp
2018-May-22 13:43N 49°27' W 002°32'0 0.0
2018-May-22 13:19N 49°27' W 002°32'0 0.0
2018-May-22 12:56N 49°27' W 002°32'0 0.0
2018-May-22 10:49N 49°27' W 002°32'0 0.0
2018-May-22 10:20N 49°27' W 002°32'0 0.0
2018-May-22 09:55N 49°27' W 002°32'0 0.6
2018-May-22 09:30N 49°27' W 002°31'3012.9
2018-May-22 07:12N 49°05' W 002°01'828.6
2018-May-22 06:55N 48°57' W 001°57'1911.5
2018-May-22 05:15N 48°38' W 002°02'0 0.0
2018-May-22 04:51N 48°38' W 002°02'0 0.0
2018-May-22 04:30N 48°38' W 002°02'0 0.0
2018-May-20 21:17N 48°39' W 002°02'0 0.0
2018-May-20 20:53N 48°39' W 002°02'0 0.1
2018-May-20 20:17N 48°38' W 002°02'0 0.5
2018-May-20 20:00N 48°38' W 002°02'2827.1
2018-May-20 18:57N 49°07' W 002°04'2 1.7
2018-May-20 17:50N 49°06' W 002°02'1125.6
2018-May-20 17:24N 48°55' W 001°58'1325.4
2018-May-20 16:54N 48°43' W 002°05'5 0.4
2018-May-20 04:53N 48°39' W 002°02'0 0.0
2018-May-20 04:11N 48°39' W 002°02'0 0.0
2018-May-20 03:53N 48°39' W 002°02'0 0.0
2018-May-20 03:29N 48°39' W 002°02'0 0.0
2018-May-20 00:29N 48°39' W 002°02'0 0.0
2018-May-19 22:59N 48°39' W 002°02'0 0.1
2018-May-19 19:59N 48°38' W 002°02'919.3
2018-May-19 19:30N 48°48' W 002°01'1734.1
2018-May-19 19:01N 49°05' W 002°04'6 5.6
2018-May-19 17:54N 49°11' W 002°07'1021.0
2018-May-19 17:25N 49°03' W 001°58'2231.2
2018-May-19 16:42N 48°41' W 002°05'4 1.4
2018-May-19 14:08N 48°38' W 002°02'1 2.7
2018-May-19 13:56N 48°39' W 002°03'32 4.6
2018-May-19 06:58N 49°11' W 002°07'3215.5
2018-May-19 04:52N 48°38' W 002°02'0 0.0
2018-May-19 02:22N 48°38' W 002°02'0 0.0
2018-May-19 01:52N 48°38' W 002°02'0 0.0
2018-May-19 01:28N 48°38' W 002°02'0 0.0
2018-May-19 00:58N 48°38' W 002°02'0 0.0
2018-May-19 00:22N 48°38' W 002°02'0 0.0
2018-May-18 23:40N 48°38' W 002°02'0 0.0
2018-May-18 23:16N 48°38' W 002°02'0 0.0
2018-May-18 22:58N 48°38' W 002°02'0 0.0
2018-May-18 22:28N 48°38' W 002°02'0 0.0
2018-May-18 21:46N 48°38' W 002°02'0 0.0
2018-May-18 21:19N 48°38' W 002°02'0 0.0
2018-May-18 20:58N 48°38' W 002°02'2 4.0
2018-May-18 20:25N 48°40' W 002°04'1531.8
2018-May-18 19:56N 48°55' W 002°02'1533.6
2018-May-18 19:30N 49°09' W 002°07'1 1.5
2018-May-18 18:36N 49°11' W 002°07'1 8.3
2018-May-18 18:27N 49°09' W 002°07'1330.4
2018-May-18 18:00N 48°57' W 001°60'1633.3
2018-May-18 17:30N 48°41' W 002°05'3 6.5
2018-May-18 16:58N 48°38' W 002°02'0 0.0
2018-May-18 16:22N 48°38' W 002°02'0 0.4
2018-May-18 16:00N 48°38' W 002°02'1625.0
2018-May-18 15:22N 48°51' W 002°16'1333.7
2018-May-18 14:58N 49°04' W 002°22'1634.0
2018-May-18 14:29N 49°20' W 002°28'815.9
2018-May-18 14:00N 49°27' W 002°32'0 0.0
2018-May-18 13:30N 49°27' W 002°32'0 0.1
2018-May-18 13:01N 49°27' W 002°32'3028.5
2018-May-18 11:58N 48°58' W 002°29'1834.1
2018-May-18 11:25N 48°44' W 002°10'8 9.2
2018-May-18 10:34N 48°38' W 002°02'0 0.0
2018-May-18 10:22N 48°38' W 002°02'0 0.1
2018-May-18 09:19N 48°38' W 002°02'411.6
2018-May-18 09:00N 48°41' W 002°05'1632.9
2018-May-18 08:31N 48°57' W 002°01'1415.7
2018-May-18 07:37N 49°11' W 002°07'1 1.5
2018-May-18 06:55N 49°10' W 002°07'1332.9
2018-May-18 06:31N 48°57' W 002°01'1631.8
2018-May-18 06:00N 48°41' W 002°02'2 4.6
2018-May-18 05:29N 48°38' W 002°02'0 0.0
2018-May-18 04:59N 48°38' W 002°02'0 0.0
2018-May-18 04:29N 48°38' W 002°02'0 0.0
2018-May-18 03:59N 48°38' W 002°02'0 0.0
2018-May-18 03:30N 48°38' W 002°02'0 0.0
2018-May-18 03:00N 48°38' W 002°02'0 0.0
2018-May-18 01:59N 48°38' W 002°02'0 0.0
2018-May-18 01:29N 48°38' W 002°02'0 0.0
2018-May-18 00:11N 48°38' W 002°02'0 0.0
2018-May-17 22:35N 48°38' W 002°02'0 0.0
2018-May-17 22:22N 48°38' W 002°02'0 0.0
2018-May-17 21:59N 48°38' W 002°02'0 0.0
2018-May-17 21:30N 48°38' W 002°02'32 7.4
2018-May-17 17:07N 49°11' W 002°07'213.2
2018-May-17 16:57N 49°09' W 002°06'2025.2
2018-May-17 16:10N 48°49' W 002°01'830.9
2018-May-17 15:55N 48°41' W 002°05'4 7.6
2018-May-17 15:25N 48°38' W 002°02'0 0.0
2018-May-17 14:57N 48°38' W 002°02'0 0.0
2018-May-17 14:25N 48°38' W 002°02'0 0.0
2018-May-17 13:55N 48°38' W 002°02'0 0.0
2018-May-17 12:37N 48°38' W 002°02'0 0.0
2018-May-17 12:13N 48°38' W 002°02'0 0.0
2018-May-17 09:43N 48°38' W 002°02'0 0.2
2018-May-17 09:16N 48°38' W 002°02'1621.8
2018-May-17 08:32N 48°54' W 002°01'433.9
2018-May-17 08:25N 48°58' W 002°00'1330.8
2018-May-17 08:00N 49°10' W 002°07'0 0.3
2018-May-17 07:03N 49°10' W 002°07'1 9.3
2018-May-17 06:58N 49°10' W 002°07'1429.7
2018-May-17 06:31N 48°57' W 002°01'1630.2
2018-May-17 05:59N 48°41' W 002°02'29 1.3
2018-May-16 07:53N 49°10' W 002°07'2915.7
2018-May-16 06:03N 48°41' W 002°02'3 0.4
2018-May-15 23:43N 48°38' W 002°02'0 0.0
2018-May-15 18:49N 48°38' W 002°02'0 0.3
2018-May-15 18:26N 48°38' W 002°02'2125.4
2018-May-15 17:37N 48°59' W 002°01'1133.1
2018-May-15 17:16N 49°10' W 002°07'1 0.9
2018-May-15 16:10N 49°11' W 002°07'1324.9
2018-May-15 15:39N 49°18' W 002°23'534.2
2018-May-15 15:30N 49°23' W 002°26'612.1
2018-May-15 15:01N 49°27' W 002°32'0 0.0
2018-May-15 14:29N 49°27' W 002°32'0 0.0
2018-May-15 14:00N 49°27' W 002°32'0 0.0
2018-May-15 13:30N 49°27' W 002°32'0 0.0
2018-May-15 13:01N 49°27' W 002°32'0 0.0
2018-May-15 12:30N 49°27' W 002°32'0 0.0
2018-May-15 12:00N 49°27' W 002°32'0 0.0
2018-May-15 11:30N 49°27' W 002°32'0 0.0
2018-May-15 11:00N 49°27' W 002°32'0 0.0
2018-May-15 10:30N 49°27' W 002°32'0 0.0
2018-May-15 10:00N 49°27' W 002°32'510.5
2018-May-15 09:31N 49°23' W 002°27'1525.7
2018-May-15 08:57N 49°10' W 002°16'610.6
2018-May-15 08:22N 49°11' W 002°07'0 0.0
2018-May-15 07:58N 49°11' W 002°07'2 4.8
2018-May-15 07:29N 49°08' W 002°06'1223.6
2018-May-15 06:58N 48°57' W 002°01'1225.3
2018-May-15 06:30N 48°45' W 002°02'6 6.6
2018-May-15 05:33N 48°38' W 002°02'0 0.0
2018-May-15 05:15N 48°38' W 002°02'0 0.0
2018-May-15 04:57N 48°38' W 002°02'0 0.0
2018-May-15 04:03N 48°38' W 002°02'0 0.0
2018-May-14 21:33N 48°38' W 002°02'0 0.0
2018-May-14 20:33N 48°38' W 002°02'0 0.1
2018-May-14 19:21N 48°38' W 002°02'1419.8
2018-May-14 18:39N 48°52' W 002°01'624.7
2018-May-14 18:26N 48°58' W 002°01'1224.0
2018-May-14 17:57N 49°09' W 002°07'2 2.0
2018-May-14 17:04N 49°11' W 002°07'0 0.2
2018-May-14 16:48N 49°11' W 002°07'919.1
2018-May-14 16:20N 49°02' W 002°02'822.4
2018-May-14 15:58N 48°54' W 002°01'1224.9
2018-May-14 15:30N 48°43' W 002°02'4 7.4
2018-May-14 14:56N 48°38' W 002°02'0 0.0
2018-May-14 14:26N 48°38' W 002°02'0 0.0
2018-May-14 13:59N 48°38' W 002°02'19 3.9
2018-May-14 09:04N 48°57' W 001°58'1220.7
2018-May-14 08:30N 49°08' W 002°06'3 3.3
2018-May-14 07:34N 49°11' W 002°07'2522.0
2018-May-14 06:26N 48°46' W 002°02'716.9
2018-May-14 06:00N 48°39' W 002°02'29 0.8
2018-May-12 18:25N 49°07' W 002°05'6 3.0
2018-May-12 16:18N 49°02' W 002°02'1024.4
2018-May-12 15:54N 48°52' W 002°01'1024.9
2018-May-12 15:30N 48°42' W 002°02'  

Dump ship's entire track history